Argusville, North Dakota
Current Conditions -  °F | °C
As of 3:53 PM on Friday 24 Oct 2014 (Local Time) from KFAR Reporting Station
Clear Clear  
Wind Chill: 25°   Ceiling: Unl
Heat Index: 25°   Visibility: 10mi
Dew Point:   Wind: 21mph
Humidity: 28%   Direction: 270°W
Pressure: 29.77"   Gusts: NA
Location:  47.05°N, 96.93°W
Report Text: KFAR 242053Z 27018KT 10SM CLR 25/05 A2977 RMK AO2 SLP080 T02500050 55014
Loading
Personal Weather Stations






























Interactive Weather Map
Tropical Storm Tracking
New forecast layout! Learn more

10-Day Weather Forecast

Advertisements
Track Severe Weather on mobile